Time;durP1;ratioP1;P1;durP2;ratioP2;P2;SDS_P1;SDS_P2;PMS_P1;PMS_P2;Temp;Humidity;BMP_temperature;BMP_pressure;BME280_temperature;BME280_humidity;BME280_pressure;Samples;Min_cycle;Max_cycle;Signal;HPM_P1;HPM_P2
2022/03/23 00:00:46;;;;;;;19.30;7.65;;;10.40;99.90;;;;;;6108109;23;20001;-88
2022/03/23 00:03:16;;;;;;;17.95;6.57;;;10.50;99.90;;;;;;6132157;23;20052;-86
2022/03/23 00:05:44;;;;;;;14.63;6.18;;;10.50;99.90;;;;;;6109276;23;20061;-86
2022/03/23 00:08:12;;;;;;;18.67;6.80;;;10.40;99.90;;;;;;6110012;23;20009;-80
2022/03/23 00:10:39;;;;;;;17.75;6.13;;;10.40;99.90;;;;;;6160174;23;20001;-90
2022/03/23 00:13:05;;;;;;;22.88;6.88;;;10.40;99.90;;;;;;6108115;23;20451;-86
2022/03/23 00:15:32;;;;;;;17.73;6.65;;;10.40;99.90;;;;;;6133557;23;20012;-87
2022/03/23 00:17:59;;;;;;;19.83;7.20;;;10.40;99.90;;;;;;6108230;23;20084;-88
2022/03/23 00:20:35;;;;;;;18.55;6.07;;;10.40;99.90;;;;;;6132510;23;20056;-88
2022/03/23 00:23:02;;;;;;;20.42;6.45;;;10.30;99.90;;;;;;6107787;23;20187;-86
2022/03/23 00:25:28;;;;;;;19.48;6.57;;;10.30;99.90;;;;;;6107828;23;20009;-87
2022/03/23 00:27:55;;;;;;;21.08;7.50;;;10.30;99.90;;;;;;6107782;23;20005;-87
2022/03/23 00:30:22;;;;;;;16.38;7.05;;;10.30;99.90;;;;;;6132208;23;20016;-88
2022/03/23 00:32:50;;;;;;;19.23;6.95;;;10.30;99.90;;;;;;6107997;23;20027;-87
2022/03/23 00:35:17;;;;;;;16.90;7.15;;;10.20;99.90;;;;;;6132094;23;20001;-87
2022/03/23 00:37:47;;;;;;;21.23;7.45;;;10.20;99.90;;;;;;6107944;23;20014;-87
2022/03/23 00:40:14;;;;;;;29.50;7.40;;;10.20;99.90;;;;;;6107672;23;20056;-87
2022/03/23 00:42:41;;;;;;;14.32;6.15;;;10.20;99.90;;;;;;6107683;23;20006;-87
2022/03/23 00:45:09;;;;;;;16.75;6.55;;;10.20;99.90;;;;;;6131893;23;20137;-87
2022/03/23 00:47:41;;;;;;;20.60;6.85;;;10.20;99.90;;;;;;6139285;23;20017;-87
2022/03/23 00:50:09;;;;;;;15.68;5.82;;;10.20;99.90;;;;;;6132232;23;20013;-88
2022/03/23 00:52:37;;;;;;;22.30;7.30;;;10.10;99.90;;;;;;6132070;23;20040;-87
2022/03/23 00:55:09;;;;;;;20.27;6.57;;;10.10;99.90;;;;;;6132733;23;20005;-87
2022/03/23 00:57:37;;;;;;;13.13;5.93;;;10.10;99.90;;;;;;6132022;23;20017;-87
2022/03/23 01:00:09;;;;;;;21.05;7.60;;;10.10;99.90;;;;;;6131935;23;20009;-87
2022/03/23 01:02:36;;;;;;;20.00;7.28;;;10.10;99.90;;;;;;6132384;23;20013;-87
2022/03/23 01:05:03;;;;;;;18.13;6.65;;;10.10;99.90;;;;;;6132100;23;20033;-86
2022/03/23 01:07:30;;;;;;;20.17;6.80;;;10.10;99.90;;;;;;6131844;23;20013;-87
2022/03/23 01:09:57;;;;;;;16.70;6.38;;;10.10;99.90;;;;;;6131963;23;20002;-87
2022/03/23 01:12:24;;;;;;;19.67;6.90;;;10.10;99.90;;;;;;6131826;23;20052;-89
2022/03/23 01:14:55;;;;;;;22.42;7.75;;;10.10;99.90;;;;;;6131981;23;20006;-87
2022/03/23 01:17:21;;;;;;;21.75;6.97;;;10.10;99.90;;;;;;6131904;23;20079;-87
2022/03/23 01:19:50;;;;;;;33.05;8.60;;;10.10;99.90;;;;;;6132224;23;20037;-87
2022/03/23 01:22:17;;;;;;;24.02;8.30;;;10.00;99.90;;;;;;6131704;23;20009;-87
2022/03/23 01:24:50;;;;;;;20.50;8.38;;;10.00;99.90;;;;;;6131715;23;20090;-88
2022/03/23 01:27:26;;;;;;;18.70;6.50;;;10.00;99.90;;;;;;6131995;23;20455;-87
2022/03/23 01:29:55;;;;;;;24.40;7.60;;;10.00;99.90;;;;;;6132421;23;20092;-87
2022/03/23 01:32:25;;;;;;;29.67;8.45;;;10.00;99.90;;;;;;6131619;23;20024;-87
2022/03/23 01:34:52;;;;;;;19.30;7.57;;;10.00;99.90;;;;;;6131842;23;20037;-87
2022/03/23 01:37:19;;;;;;;21.98;6.93;;;10.00;99.90;;;;;;6132204;23;20005;-88
2022/03/23 01:39:46;;;;;;;17.20;7.65;;;10.00;99.90;;;;;;6131927;23;20442;-88
2022/03/23 01:42:13;;;;;;;35.15;7.63;;;10.10;99.90;;;;;;6131733;23;20084;-87
2022/03/23 01:44:40;;;;;;;27.77;6.90;;;10.10;99.90;;;;;;6131589;23;20012;-87
2022/03/23 01:47:27;;;;;;;22.05;6.53;;;10.10;99.90;;;;;;6131331;23;20025;-87
2022/03/23 01:49:56;;;;;;;23.50;7.20;;;10.10;99.90;;;;;;6131355;23;20013;-87
2022/03/23 01:52:30;;;;;;;15.40;6.20;;;10.10;99.90;;;;;;6107798;23;20092;-88
2022/03/23 01:55:01;;;;;;;;;;;10.10;99.90;;;;;;6132037;23;20377;-88
2022/03/23 01:57:29;;;;;;;20.02;6.72;;;10.10;99.90;;;;;;6106667;23;19982;-87
2022/03/23 01:59:57;;;;;;;20.65;6.75;;;10.10;99.90;;;;;;6106835;23;20097;-88
2022/03/23 02:02:25;;;;;;;23.08;6.22;;;10.00;99.90;;;;;;6131612;23;20089;-87
2022/03/23 02:05:03;;;;;;;20.20;7.38;;;10.00;99.90;;;;;;6131109;23;20019;-87
2022/03/23 02:07:30;;;;;;;29.90;7.40;;;9.90;99.90;;;;;;6097210;23;20005;-88
2022/03/23 02:09:59;;;;;;;23.48;7.28;;;9.90;99.90;;;;;;6131560;23;20096;-87
2022/03/23 02:12:45;;;;;;;17.20;6.63;;;9.80;99.90;;;;;;6110124;23;20018;-87
2022/03/23 02:15:21;;;;;;;17.15;7.10;;;9.80;99.90;;;;;;6131586;23;20017;-87
2022/03/23 02:17:53;;;;;;;25.02;7.95;;;9.90;99.90;;;;;;6131283;23;20018;-87
2022/03/23 02:20:21;;;;;;;32.13;7.93;;;9.80;99.90;;;;;;6106947;23;20055;-87
2022/03/23 02:22:51;;;;;;;20.65;6.10;;;9.80;99.90;;;;;;6106829;23;20009;-88
2022/03/23 02:25:22;;;;;;;18.27;7.15;;;9.80;99.90;;;;;;6131253;23;20006;-89
2022/03/23 02:27:51;;;;;;;16.90;6.55;;;9.80;99.90;;;;;;6131210;23;20054;-87
2022/03/23 02:30:18;;;;;;;20.95;7.45;;;9.80;99.90;;;;;;6106983;23;20005;-87
2022/03/23 02:32:54;;;;;;;23.73;7.07;;;9.80;99.90;;;;;;6106642;23;20013;-87
2022/03/23 02:35:21;;;;;;;18.00;7.68;;;9.80;99.90;;;;;;6131456;23;20005;-87
2022/03/23 02:37:53;;;;;;;19.20;6.72;;;9.80;99.90;;;;;;6131363;23;20009;-88
2022/03/23 02:40:20;;;;;;;19.17;7.55;;;9.70;99.90;;;;;;6130994;23;20453;-88
2022/03/23 02:42:47;;;;;;;23.13;7.47;;;9.70;99.90;;;;;;6131197;23;20006;-89
2022/03/23 02:45:14;;;;;;;29.85;6.57;;;9.70;99.90;;;;;;6130679;23;20066;-87
2022/03/23 02:47:46;;;;;;;23.73;7.78;;;9.70;99.90;;;;;;6122616;23;20013;-88
2022/03/23 02:50:13;;;;;;;17.55;6.80;;;9.70;99.90;;;;;;6132887;23;20009;-87
2022/03/23 03:01:52;;;;;;;17.65;6.30;;;9.80;99.90;;;;;;6131276;23;20021;-87
2022/03/23 03:01:59;;;;;;;37.78;7.75;;;9.80;99.90;;;;;;6155755;23;20005;-86
2022/03/23 03:04:26;;;;;;;24.83;7.57;;;9.90;99.90;;;;;;6043185;23;20011;-87
2022/03/23 03:06:58;;;;;;;22.83;7.25;;;9.90;99.90;;;;;;6043215;23;20019;-87
2022/03/23 03:09:24;;;;;;;16.88;6.72;;;9.90;99.90;;;;;;6044895;23;20007;-88
2022/03/23 03:11:51;;;;;;;16.27;7.40;;;10.00;99.90;;;;;;6045178;23;20014;-87
2022/03/23 03:14:18;;;;;;;20.83;6.55;;;10.00;99.90;;;;;;6045235;23;20062;-87
2022/03/23 03:16:45;;;;;;;24.73;6.00;;;10.00;99.90;;;;;;6045277;23;20010;-87
2022/03/23 03:19:12;;;;;;;13.75;6.68;;;10.00;99.90;;;;;;6045141;23;20110;-88
2022/03/23 03:21:42;;;;;;;22.20;6.47;;;10.00;99.90;;;;;;6045537;23;20007;-87
2022/03/23 03:24:20;;;;;;;32.97;7.68;;;9.90;99.90;;;;;;6045294;23;20503;-87
2022/03/23 03:26:47;;;;;;;17.60;6.15;;;9.90;99.90;;;;;;6045346;23;20042;-87
2022/03/23 03:29:14;;;;;;;15.50;6.45;;;9.90;99.90;;;;;;6045263;23;20007;-88
2022/03/23 03:31:50;;;;;;;19.90;8.10;;;9.80;99.90;;;;;;6045374;23;20493;-87
2022/03/23 03:34:17;;;;;;;17.60;6.80;;;9.80;99.90;;;;;;6045614;23;20089;-88
2022/03/23 03:36:44;;;;;;;15.70;5.78;;;9.70;99.90;;;;;;6044915;23;20066;-88
2022/03/23 03:39:11;;;;;;;14.90;6.32;;;9.70;99.90;;;;;;6060015;23;20428;-87
2022/03/23 03:41:37;;;;;;;18.10;6.70;;;9.60;99.90;;;;;;6132531;23;20017;-88
2022/03/23 03:44:06;;;;;;;17.58;7.45;;;9.50;99.90;;;;;;6157212;23;20034;-87
2022/03/23 03:46:33;;;;;;;27.77;7.43;;;9.50;99.90;;;;;;6132887;23;20096;-87
2022/03/23 03:49:00;;;;;;;17.42;6.63;;;9.50;99.90;;;;;;6132573;23;20068;-87
2022/03/23 03:51:27;;;;;;;26.40;8.02;;;9.40;99.90;;;;;;6107909;23;20017;-87
2022/03/23 03:53:53;;;;;;;21.75;7.32;;;9.40;99.90;;;;;;6132572;23;20064;-87
2022/03/23 03:56:20;;;;;;;27.80;7.15;;;9.40;99.90;;;;;;6107990;23;20005;-88
2022/03/23 03:58:48;;;;;;;13.05;6.68;;;9.30;99.90;;;;;;6108026;23;20064;-88
2022/03/23 04:01:14;;;;;;;17.92;7.82;;;9.40;99.90;;;;;;6107976;23;20409;-87
2022/03/23 04:03:41;;;;;;;21.42;7.07;;;9.40;99.90;;;;;;6108033;23;20009;-88
2022/03/23 04:06:08;;;;;;;18.95;7.32;;;9.30;99.90;;;;;;6132529;23;20427;-87
2022/03/23 04:08:36;;;;;;;18.23;7.90;;;9.30;99.90;;;;;;6108143;23;20159;-88
2022/03/23 04:11:03;;;;;;;16.63;6.47;;;9.20;99.90;;;;;;6108085;23;20010;-87
2022/03/23 04:13:29;;;;;;;24.35;9.43;;;9.20;99.90;;;;;;6111525;23;20017;-87
2022/03/23 04:15:59;;;;;;;17.55;7.65;;;9.20;99.90;;;;;;6132492;23;20052;-87
2022/03/23 04:18:29;;;;;;;15.32;7.53;;;9.10;99.90;;;;;;6108013;23;20064;-87
2022/03/23 04:20:55;;;;;;;23.58;6.93;;;9.10;99.90;;;;;;6131987;23;20002;-87
2022/03/23 04:23:22;;;;;;;24.10;7.53;;;9.10;99.90;;;;;;6107956;23;20009;-87
2022/03/23 04:25:49;;;;;;;17.20;7.57;;;9.10;99.90;;;;;;6132265;23;20005;-87
2022/03/23 04:28:15;;;;;;;19.98;8.18;;;9.00;99.90;;;;;;6107898;23;20009;-87
2022/03/23 04:30:43;;;;;;;24.80;7.07;;;9.00;99.90;;;;;;6132574;23;20019;-89
2022/03/23 04:33:10;;;;;;;24.23;8.35;;;9.10;99.90;;;;;;6132197;23;20045;-88
2022/03/23 04:35:36;;;;;;;15.65;7.20;;;9.10;99.90;;;;;;6132257;23;20427;-88
2022/03/23 04:38:03;;;;;;;22.90;7.60;;;9.10;99.90;;;;;;6132055;23;20040;-87
2022/03/23 04:40:32;;;;;;;21.58;7.38;;;9.10;99.90;;;;;;6132012;23;19997;-85
2022/03/23 04:42:59;;;;;;;21.92;8.32;;;9.10;99.90;;;;;;6132113;23;20013;-85
2022/03/23 04:45:26;;;;;;;21.35;7.45;;;9.10;99.90;;;;;;6132080;23;20027;-85
2022/03/23 04:47:53;;;;;;;23.00;7.78;;;9.10;99.90;;;;;;6142042;23;20036;-84
2022/03/23 04:50:20;;;;;;;22.45;6.93;;;9.10;99.90;;;;;;6132009;23;20012;-85
2022/03/23 04:52:52;;;;;;;20.55;7.45;;;9.10;99.90;;;;;;6132169;23;20097;-85
2022/03/23 04:55:19;;;;;;;16.75;6.97;;;9.00;99.90;;;;;;6132167;23;20005;-85
2022/03/23 04:57:45;;;;;;;16.25;7.05;;;9.00;99.90;;;;;;6131984;23;20036;-88
2022/03/23 05:00:15;;;;;;;25.73;8.55;;;9.00;99.90;;;;;;6131940;23;20395;-88
2022/03/23 05:02:44;;;;;;;27.13;7.88;;;8.90;99.90;;;;;;6131927;23;20009;-88
2022/03/23 05:05:12;;;;;;;24.55;7.57;;;8.90;99.90;;;;;;6132171;23;20013;-90
2022/03/23 05:07:40;;;;;;;24.55;7.93;;;8.90;99.90;;;;;;6132112;23;20006;-84
2022/03/23 05:10:08;;;;;;;32.08;7.95;;;8.90;99.90;;;;;;6131932;23;20034;-88
2022/03/23 05:12:39;;;;;;;16.17;7.57;;;9.00;99.90;;;;;;6131791;23;20462;-87
2022/03/23 05:15:08;;;;;;;18.42;6.80;;;9.10;99.90;;;;;;6132078;23;20436;-89
2022/03/23 05:17:36;;;;;;;19.15;7.90;;;9.00;99.90;;;;;;6131928;23;20033;-88
2022/03/23 05:20:04;;;;;;;25.45;8.13;;;9.10;99.90;;;;;;6131832;23;20037;-88
2022/03/23 05:22:37;;;;;;;21.73;6.70;;;9.10;99.90;;;;;;6132114;23;20446;-88
2022/03/23 05:25:05;;;;;;;22.70;8.07;;;9.20;99.90;;;;;;6132314;23;20024;-84
2022/03/23 05:27:37;;;;;;;26.20;7.22;;;9.20;99.90;;;;;;6131779;23;20013;-86
2022/03/23 05:30:08;;;;;;;16.55;7.47;;;9.20;99.90;;;;;;6131599;23;20013;-85
2022/03/23 05:32:35;;;;;;;18.58;6.82;;;9.20;99.90;;;;;;6131511;23;20017;-86
2022/03/23 05:35:02;;;;;;;19.48;6.70;;;9.30;99.90;;;;;;6131698;23;20002;-85
2022/03/23 05:37:29;;;;;;;17.60;6.75;;;9.30;99.90;;;;;;6132065;23;20447;-85
2022/03/23 05:39:56;;;;;;;19.15;6.60;;;9.40;99.90;;;;;;6131761;23;20010;-85
2022/03/23 05:42:22;;;;;;;16.73;6.82;;;9.40;99.90;;;;;;6131718;23;20033;-84
2022/03/23 05:44:49;;;;;;;17.20;7.00;;;9.50;99.90;;;;;;6131522;23;20013;-82
2022/03/23 05:47:15;;;;;;;18.33;6.82;;;9.60;99.90;;;;;;6135946;23;20040;-86
2022/03/23 05:49:42;;;;;;;20.20;7.13;;;9.70;99.90;;;;;;6136356;23;20009;-85
2022/03/23 05:52:09;;;;;;;17.90;7.00;;;9.70;99.90;;;;;;6136673;23;20091;-87
2022/03/23 05:54:35;;;;;;;15.80;7.32;;;9.70;99.90;;;;;;6136662;23;20009;-86
2022/03/23 05:57:02;;;;;;;23.15;7.30;;;9.70;99.90;;;;;;6136335;23;20075;-87
2022/03/23 05:59:30;;;;;;;16.92;7.68;;;9.80;99.90;;;;;;6136346;23;20032;-86
2022/03/23 06:01:58;;;;;;;21.85;7.38;;;9.90;99.90;;;;;;6136361;23;20005;-85
2022/03/23 06:04:26;;;;;;;13.13;6.75;;;9.90;99.90;;;;;;6136234;23;20340;-87
2022/03/23 06:06:58;;;;;;;17.75;6.80;;;10.00;99.90;;;;;;6136208;23;20155;-87
2022/03/23 06:09:28;;;;;;;16.85;7.03;;;10.00;99.90;;;;;;6136411;23;20366;-86
2022/03/23 06:11:56;;;;;;;16.27;6.00;;;10.10;99.90;;;;;;6136251;23;20040;-87
2022/03/23 06:14:24;;;;;;;13.15;5.75;;;10.20;99.90;;;;;;6136449;23;20016;-86
2022/03/23 06:16:51;;;;;;;13.73;6.47;;;10.30;99.90;;;;;;6136367;23;20020;-84
2022/03/23 06:19:17;;;;;;;19.75;6.90;;;10.40;99.90;;;;;;6135827;23;20048;-83
2022/03/23 06:21:44;;;;;;;15.32;5.72;;;10.40;99.90;;;;;;6160839;23;20015;-85
2022/03/23 06:24:10;;;;;;;14.32;6.47;;;10.50;99.90;;;;;;6136345;23;20013;-85
2022/03/23 06:26:37;;;;;;;18.25;7.55;;;10.60;99.90;;;;;;6136254;23;20013;-86
2022/03/23 06:29:05;;;;;;;23.83;6.82;;;10.70;99.90;;;;;;6136167;23;20013;-86
2022/03/23 06:31:38;;;;;;;19.00;6.43;;;10.90;99.90;;;;;;6136061;23;20009;-87
2022/03/23 06:34:07;;;;;;;15.68;6.38;;;11.00;99.90;;;;;;6136116;23;20013;-86
2022/03/23 06:36:35;;;;;;;18.25;5.72;;;11.00;99.90;;;;;;6136423;23;20502;-86
2022/03/23 06:39:03;;;;;;;18.90;6.60;;;11.10;99.90;;;;;;6136073;23;20009;-86
2022/03/23 06:41:30;;;;;;;11.05;4.95;;;11.20;99.90;;;;;;6135959;23;20012;-86
2022/03/23 06:43:56;;;;;;;21.75;6.13;;;11.30;99.90;;;;;;6137360;23;20320;-86
2022/03/23 06:46:23;;;;;;;13.98;5.00;;;11.40;99.90;;;;;;6138064;23;20339;-86
2022/03/23 06:48:49;;;;;;;15.35;5.72;;;11.50;99.90;;;;;;6157435;23;20439;-85
2022/03/23 06:51:19;;;;;;;15.93;5.80;;;11.60;99.90;;;;;;6133317;23;20080;-87
2022/03/23 06:53:47;;;;;;;16.30;5.15;;;11.70;99.90;;;;;;6133054;23;20444;-87
2022/03/23 06:56:17;;;;;;;18.60;6.47;;;11.90;99.90;;;;;;6133260;23;20081;-86
2022/03/23 06:58:45;;;;;;;16.15;4.80;;;12.10;99.90;;;;;;6132788;23;20010;-87
2022/03/23 07:01:11;;;;;;;16.35;5.78;;;12.20;99.90;;;;;;6132571;23;20005;-86
2022/03/23 07:03:37;;;;;;;12.93;4.93;;;12.40;99.90;;;;;;6132957;23;20005;-86
2022/03/23 07:06:04;;;;;;;12.77;4.43;;;12.60;99.90;;;;;;6133051;23;20017;-86
2022/03/23 07:11:15;;;;;;;20.23;6.45;;;12.70;99.90;;;;;;6157547;23;20013;-85
2022/03/23 07:13:42;;;;;;;12.23;6.00;;;12.80;99.90;;;;;;6133240;23;20013;-86
2022/03/23 07:16:08;;;;;;;23.00;6.78;;;12.90;99.90;;;;;;6133187;23;20458;-86
2022/03/23 07:18:34;;;;;;;22.35;5.40;;;13.00;99.90;;;;;;6132809;23;20012;-86
2022/03/23 07:21:04;;;;;;;15.93;5.13;;;13.00;99.90;;;;;;6132568;23;20013;-86
2022/03/23 07:23:31;;;;;;;12.00;4.30;;;13.30;99.90;;;;;;6132816;23;20006;-86
2022/03/23 07:25:58;;;;;;;13.55;3.60;;;13.40;99.90;;;;;;6132478;23;20009;-86
2022/03/23 07:28:24;;;;;;;18.52;4.57;;;13.80;99.90;;;;;;6132843;23;20014;-86
2022/03/23 07:30:54;;;;;;;9.35;3.35;;;14.30;99.90;;;;;;6132906;23;20032;-86
2022/03/23 07:33:21;;;;;;;13.55;3.47;;;14.70;99.90;;;;;;6157221;23;20018;-88
2022/03/23 07:35:47;;;;;;;20.20;3.25;;;14.80;99.90;;;;;;6132653;23;20006;-87
2022/03/23 07:38:14;;;;;;;9.15;3.45;;;15.00;99.90;;;;;;6132721;23;20446;-86
2022/03/23 07:40:41;;;;;;;12.52;3.92;;;15.10;99.90;;;;;;6132642;23;20056;-88
2022/03/23 07:43:11;;;;;;;6.30;3.17;;;15.20;99.90;;;;;;6132545;23;20442;-87
2022/03/23 07:45:37;;;;;;;12.20;3.85;;;15.30;99.90;;;;;;6132422;23;20021;-85
2022/03/23 07:48:04;;;;;;;12.15;3.80;;;15.40;99.90;;;;;;6136850;23;20021;-85
2022/03/23 07:50:30;;;;;;;10.00;2.85;;;15.60;99.90;;;;;;6137440;23;20005;-84
2022/03/23 07:52:57;;;;;;;5.55;2.47;;;15.60;99.90;;;;;;6137053;23;20043;-83
2022/03/23 07:55:24;;;;;;;6.70;3.03;;;15.50;99.90;;;;;;6136110;23;20009;-81
2022/03/23 07:57:50;;;;;;;10.75;3.22;;;15.50;99.90;;;;;;6160984;23;20012;-82
2022/03/23 08:00:17;;;;;;;11.00;4.03;;;15.60;99.90;;;;;;6136584;23;20436;-82
2022/03/23 08:02:44;;;;;;;8.18;2.97;;;15.50;99.90;;;;;;6136683;23;20032;-81
2022/03/23 08:05:14;;;;;;;7.25;3.25;;;15.50;99.90;;;;;;6137138;23;20005;-84
2022/03/23 08:07:40;;;;;;;9.55;3.13;;;15.40;99.90;;;;;;6137499;23;20013;-87
2022/03/23 12:21:26;;;;;;;5.40;2.33;;;16.00;99.90;;;;;;6215728;22;20025;-93
2022/03/23 12:26:56;;;;;;;6.53;1.63;;;16.00;99.90;;;;;;6171120;23;20019;-93
2022/03/23 12:29:34;;;;;;;4.43;2.03;;;16.10;99.90;;;;;;6167594;23;20008;-92
2022/03/23 12:32:55;;;;;;;3.67;2.13;;;16.00;99.90;;;;;;6173039;23;20016;-92
2022/03/23 12:35:35;;;;;;;8.73;2.13;;;15.90;99.90;;;;;;6081064;23;20432;-90
2022/03/23 12:38:21;;;;;;;7.35;2.00;;;15.90;99.90;;;;;;6123336;23;20016;-92
2022/03/23 12:40:49;;;;;;;9.30;2.00;;;15.90;99.90;;;;;;6189020;23;20044;-92
2022/03/23 12:43:46;;;;;;;4.82;1.77;;;16.00;99.90;;;;;;6190977;23;19997;-92
2022/03/23 12:46:49;;;;;;;11.27;1.75;;;15.90;99.90;;;;;;6176305;23;20466;-91
2022/03/23 13:13:51;;;;;;;11.27;2.75;;;15.90;99.90;;;;;;6211631;22;20154;-92
2022/03/23 13:16:23;;;;;;;7.03;2.65;;;15.90;99.90;;;;;;6167020;23;20008;-92
2022/03/23 13:18:53;;;;;;;34.75;3.40;;;16.00;99.90;;;;;;6167330;23;20009;-91
2022/03/23 13:21:31;;;;;;;10.63;2.55;;;16.00;99.90;;;;;;6169610;23;20467;-93
2022/03/23 13:26:43;;;;;;;9.32;2.70;;;16.00;99.90;;;;;;6227754;22;20008;-92
2022/03/23 13:29:31;;;;;;;6.30;2.38;;;16.00;99.90;;;;;;6175727;23;20009;-92
2022/03/23 13:32:05;;;;;;;8.13;3.40;;;16.00;99.90;;;;;;6141624;23;20040;-93
2022/03/23 13:34:51;;;;;;;10.02;2.67;;;15.90;99.90;;;;;;6143912;23;20020;-93
2022/03/23 14:02:01;;;;;;;5.93;2.58;;;15.90;99.90;;;;;;6181377;22;20051;-92
2022/03/23 14:29:21;;;;;;;9.23;2.35;;;15.70;99.90;;;;;;6218623;22;20051;-91
2022/03/23 14:31:49;;;;;;;11.02;3.70;;;15.70;99.90;;;;;;6176231;23;20029;-91
2022/03/23 14:34:43;;;;;;;5.82;2.38;;;15.70;99.90;;;;;;6175857;23;20060;-92
2022/03/23 14:37:32;;;;;;;4.60;1.92;;;15.70;99.90;;;;;;6163334;23;20020;-92
2022/03/23 14:40:01;;;;;;;4.43;2.10;;;15.70;99.90;;;;;;6161978;23;20017;-92
2022/03/23 14:43:02;;;;;;;4.43;2.10;;;15.70;99.90;;;;;;6161509;23;20012;-91
2022/03/23 14:52:32;;;;;;;6.70;3.50;;;15.60;99.90;;;;;;6222189;22;20025;-93
2022/03/23 14:59:08;;;;;;;6.47;2.72;;;15.70;99.90;;;;;;6223820;22;20032;-92
2022/03/23 15:02:37;;;;;;;;;;;;;;;;;;;;;
2022/03/23 15:48:23;;;;;;;;;;;;;;;;;;;;;
2022/03/23 16:53:06;;;;;;;10.18;5.15;;;14.10;99.90;;;;;;6220993;22;20347;-93
2022/03/23 16:55:55;;;;;;;18.35;6.00;;;14.00;99.90;;;;;;6154475;23;20009;-91
2022/03/23 16:58:40;;;;;;;14.25;5.40;;;14.00;99.90;;;;;;6165896;22;20021;-93
2022/03/23 17:13:23;;;;;;;17.65;6.47;;;13.70;99.90;;;;;;6223275;23;20047;-92
2022/03/23 18:22:43;;;;;;;38.63;11.40;;;12.70;99.90;;;;;;6218865;22;20354;-93
2022/03/23 19:05:53;;;;;;;41.15;13.40;;;12.30;99.90;;;;;;6204231;22;20031;-92
2022/03/23 19:08:58;;;;;;;47.25;15.85;;;12.20;99.90;;;;;;6218063;23;20003;-93
2022/03/23 19:11:42;;;;;;;46.67;17.58;;;12.20;99.90;;;;;;6111855;23;20005;-93
2022/03/23 19:14:09;;;;;;;43.03;14.90;;;12.10;99.90;;;;;;6192917;23;20383;-93
2022/03/23 19:16:39;;;;;;;42.42;14.02;;;12.10;99.90;;;;;;6189548;23;20001;-92
2022/03/23 19:19:24;;;;;;;34.95;13.00;;;12.00;99.90;;;;;;6171620;23;20009;-93
2022/03/23 19:22:06;;;;;;;26.92;11.23;;;12.00;99.90;;;;;;6178453;23;20017;-92
2022/03/23 19:24:41;;;;;;;34.63;12.43;;;12.00;99.90;;;;;;6150031;23;20339;-93
2022/03/23 19:27:08;;;;;;;49.03;13.73;;;12.00;99.90;;;;;;6167670;23;20064;-93
2022/03/23 19:29:52;;;;;;;31.10;13.48;;;12.00;99.90;;;;;;6141042;23;20084;-93
2022/03/23 19:32:24;;;;;;;37.78;13.15;;;12.00;99.90;;;;;;6091595;23;20018;-93
2022/03/23 19:35:13;;;;;;;43.28;14.40;;;12.00;99.90;;;;;;6130817;23;20017;-92
2022/03/23 19:37:44;;;;;;;41.17;14.23;;;12.00;99.90;;;;;;6063848;23;20100;-93
2022/03/23 19:40:39;;;;;;;45.35;13.10;;;11.90;99.90;;;;;;6116339;23;20029;-92
2022/03/23 19:43:18;;;;;;;49.55;16.30;;;11.90;99.90;;;;;;6108348;23;20440;-93
2022/03/23 19:45:44;;;;;;;62.67;24.70;;;11.90;99.90;;;;;;6083731;23;20022;-92
2022/03/23 19:48:17;;;;;;;40.47;16.30;;;11.90;99.90;;;;;;6082562;23;20017;-93
2022/03/23 19:50:53;;;;;;;35.88;12.40;;;11.90;99.90;;;;;;6085684;23;20373;-92
2022/03/23 19:53:22;;;;;;;42.42;15.63;;;11.90;99.90;;;;;;6085860;23;20302;-92
2022/03/23 19:55:50;;;;;;;52.58;14.88;;;11.80;99.90;;;;;;6109452;23;20013;-92
2022/03/23 19:58:17;;;;;;;50.38;17.88;;;11.80;99.90;;;;;;6083162;23;20006;-92
2022/03/23 20:00:58;;;;;;;37.40;13.73;;;11.80;99.90;;;;;;6106075;23;20002;-92
2022/03/23 20:07:44;;;;;;;30.30;13.63;;;11.70;99.90;;;;;;6199329;23;20071;-93
2022/03/23 20:10:16;;;;;;;40.08;13.25;;;11.70;99.90;;;;;;6194946;23;20029;-92
2022/03/23 20:12:46;;;;;;;35.25;13.32;;;11.70;99.90;;;;;;6175124;23;20052;-92
2022/03/23 20:15:13;;;;;;;39.97;13.68;;;11.70;99.90;;;;;;6195957;23;20005;-92
2022/03/23 20:17:43;;;;;;;36.67;12.48;;;11.70;99.90;;;;;;6169610;23;20012;-93
2022/03/23 20:20:10;;;;;;;39.28;12.88;;;11.70;99.90;;;;;;6169803;23;20459;-93
2022/03/23 20:22:40;;;;;;;30.40;13.60;;;11.70;99.90;;;;;;6169059;23;20005;-92
2022/03/23 20:25:38;;;;;;;42.25;12.52;;;11.70;99.90;;;;;;6192986;23;20036;-92
2022/03/23 20:28:12;;;;;;;41.15;12.82;;;11.70;99.90;;;;;;6167615;23;20005;-93
2022/03/23 20:30:39;;;;;;;30.30;11.45;;;11.70;99.90;;;;;;6194233;23;20263;-86
2022/03/23 20:33:06;;;;;;;33.05;11.50;;;11.70;99.90;;;;;;6164665;23;20020;-87
2022/03/23 20:35:44;;;;;;;33.42;12.52;;;11.70;99.90;;;;;;6161976;23;20009;-89
2022/03/23 20:38:11;;;;;;;34.80;13.88;;;11.70;99.90;;;;;;6166860;23;20009;-88
2022/03/23 20:43:25;;;;;;;42.80;13.57;;;11.60;99.90;;;;;;6200204;22;20118;-91
2022/03/23 20:45:55;;;;;;;38.15;13.57;;;11.50;99.90;;;;;;6167205;23;20308;-88
2022/03/23 20:48:26;;;;;;;36.97;15.05;;;11.50;99.90;;;;;;6167710;23;20012;-91
2022/03/23 20:50:54;;;;;;;40.70;12.70;;;11.40;99.90;;;;;;6167331;23;20423;-89
2022/03/23 20:53:26;;;;;;;30.38;11.85;;;11.50;99.90;;;;;;6163152;23;20021;-91
2022/03/23 20:55:59;;;;;;;41.55;14.75;;;11.40;99.90;;;;;;6191121;23;20037;-92
2022/03/23 20:58:27;;;;;;;55.20;16.67;;;11.50;99.90;;;;;;6168799;23;20013;-90
2022/03/23 21:00:55;;;;;;;42.33;16.15;;;11.50;99.90;;;;;;6162368;23;20012;-87
2022/03/23 21:03:22;;;;;;;44.38;14.98;;;11.50;99.90;;;;;;6193502;23;20005;-92
2022/03/23 21:05:58;;;;;;;42.85;14.43;;;11.50;99.90;;;;;;6194442;23;20001;-89
2022/03/23 21:11:25;;;;;;;34.22;13.75;;;11.50;99.90;;;;;;6085929;23;20046;-90
2022/03/23 21:13:52;;;;;;;30.55;12.20;;;11.40;99.90;;;;;;6052779;23;20053;-91
2022/03/23 21:16:20;;;;;;;29.05;14.10;;;11.40;99.90;;;;;;6054245;23;20084;-91
2022/03/23 21:18:50;;;;;;;35.22;12.93;;;11.30;99.90;;;;;;6054867;23;20013;-91
2022/03/23 21:21:26;;;;;;;48.40;13.10;;;11.30;99.90;;;;;;6076894;23;20033;-90
2022/03/23 21:24:02;;;;;;;42.00;11.70;;;11.30;99.90;;;;;;6053878;23;20026;-92
2022/03/23 21:26:29;;;;;;;41.33;12.68;;;11.30;99.90;;;;;;6051049;23;20033;-90
2022/03/23 21:28:55;;;;;;;53.33;12.50;;;11.30;99.90;;;;;;6051104;23;20006;-91
2022/03/23 21:31:25;;;;;;;39.17;12.50;;;11.30;99.90;;;;;;6051250;23;20017;-90
2022/03/23 21:33:51;;;;;;;38.38;12.05;;;11.30;99.90;;;;;;6056466;23;20015;-94
2022/03/23 21:36:21;;;;;;;44.22;13.13;;;11.30;99.90;;;;;;6076135;23;20006;-92
2022/03/23 21:38:49;;;;;;;31.75;11.27;;;11.30;99.90;;;;;;6051735;23;20471;-92
2022/03/23 21:41:18;;;;;;;34.85;12.52;;;11.30;99.90;;;;;;6051416;23;20015;-93
2022/03/23 21:43:45;;;;;;;32.45;11.98;;;11.30;99.90;;;;;;6054195;23;20022;-93
2022/03/23 21:46:11;;;;;;;30.23;12.32;;;11.30;99.90;;;;;;6063315;23;20097;-92
2022/03/23 21:48:38;;;;;;;38.60;12.10;;;11.20;99.90;;;;;;6160061;23;20005;-89
2022/03/23 21:51:06;;;;;;;42.45;12.52;;;11.20;99.90;;;;;;6157317;23;20432;-87
2022/03/23 21:53:33;;;;;;;36.78;11.35;;;11.20;99.90;;;;;;6156474;23;20025;-86
2022/03/23 21:56:00;;;;;;;25.67;11.25;;;11.20;99.90;;;;;;6159103;23;20005;-89
2022/03/23 21:58:29;;;;;;;33.75;12.00;;;11.20;99.90;;;;;;6156812;23;20017;-87
2022/03/23 22:00:59;;;;;;;41.75;13.15;;;11.10;99.90;;;;;;6156368;23;20089;-87
2022/03/23 22:03:28;;;;;;;25.58;10.55;;;11.20;99.90;;;;;;6156461;23;20009;-87
2022/03/23 22:05:54;;;;;;;36.40;10.98;;;11.20;99.90;;;;;;6156001;23;20008;-87
2022/03/23 22:08:31;;;;;;;38.75;11.52;;;11.20;99.90;;;;;;6155989;23;20015;-87
2022/03/23 22:10:58;;;;;;;63.30;12.50;;;11.20;99.90;;;;;;6156465;23;20001;-88
2022/03/23 22:13:24;;;;;;;26.70;10.25;;;11.10;99.90;;;;;;6156115;23;20036;-87
2022/03/23 22:15:57;;;;;;;29.10;9.35;;;11.20;99.90;;;;;;6155948;23;20048;-88
2022/03/23 22:18:27;;;;;;;29.27;11.77;;;11.20;99.90;;;;;;6155893;23;20010;-87
2022/03/23 22:20:54;;;;;;;33.13;10.98;;;11.20;99.90;;;;;;6157654;23;20009;-86
2022/03/23 22:23:24;;;;;;;40.88;12.25;;;11.20;99.90;;;;;;6156455;23;20072;-87
2022/03/23 22:25:51;;;;;;;35.50;11.48;;;11.20;99.90;;;;;;6155793;23;20054;-87
2022/03/23 22:28:18;;;;;;;32.95;10.07;;;11.20;99.90;;;;;;6156111;23;20013;-88
2022/03/23 22:30:45;;;;;;;24.90;10.13;;;11.20;99.90;;;;;;6155889;23;20012;-88
2022/03/23 22:33:14;;;;;;;30.42;10.38;;;11.20;99.90;;;;;;6155779;23;20013;-87
2022/03/23 22:35:41;;;;;;;39.97;11.23;;;11.10;99.90;;;;;;6155709;23;20002;-89
2022/03/23 22:38:08;;;;;;;26.58;9.35;;;11.20;99.90;;;;;;6155956;23;20013;-88
2022/03/23 22:40:35;;;;;;;25.77;9.52;;;11.20;99.90;;;;;;6131377;23;20084;-88
2022/03/23 22:43:02;;;;;;;29.02;9.95;;;11.20;99.90;;;;;;6155612;23;20348;-89